Share

Yokkaichi, Japan

SUZUKA (IU4E09U92) Elev 33 ft | 34.88 °N, 136.57 °E | Change Station

Current weather conditions updated 3 seconds ago

Light Rain
Light Rain
52.3 °F
Feels Like 52.3 °F
N
1.0
Wind Variable Wind from NNW
Gusts 6.0 mph
Sunrise 5:16 AM
Sunset 6:29 PM
Moon Waning Gibbous

Tomorrow is forecast to be Much Warmer than today. Cloudy, periods of rain.

Pressure 30.12 in
Visibility 6.2 miles
Clouds Few 1000 ft
Mostly Cloudy 2000 ft
Dew Point 50 °F
Humidity 92%
Rainfall 0.11 in
Snow Depth Not available.
UV 0 out of 16
Pollen Not available.
Air Quality Not available.
Flu Activity Not available.
METAR RJGG 200830Z 06007KT 9999 -RA FEW010 BKN020 12/10 Q1020 NOSIG

More Conditions Fewer Conditions

Pressure 30.12 in
Visibility 6.2 miles
Clouds Few 1000 ft
Mostly Cloudy 2000 ft
Dew Point 50 °F
Humidity 92%
Rainfall 0.11 in
Snow Depth Not available.
UV 0 out of 16
Pollen Not available.
Air Quality Not available.
Flu Activity Not available.
METAR RJGG 200830Z 06007KT 9999 -RA FEW010 BKN020 12/10 Q1020 NOSIG

More Conditions Fewer Conditions

10-Day Weather Forecast

Almanac

Astronomy

Apr. 20, 2014 Rise Set
Actual Time 5:16 AM JST 6:29 PM JST
Civil Twilight 4:50 AM JST 6:55 PM JST
Nautical Twilight 4:18 AM JST 7:27 PM JST
Astronomical Twilight 3:46 AM JST 8:00 PM JST
Moon 11:25 PM JST 9:02 AM JST
Length of Visible Light 14h 05m
Length of Day
13h 13m
Tomorrow will be 2m 2s longer.
Waning Gibbous, 72% of the Moon is Illuminated
Today
Waning Gibbous
Apr 22
Last Quarter
Apr 29
New
May 6
First Quarter
May 14
Full

Yesterday's Extremes

Country Highs Country Lows

Community

  • Sunny day at the coast-Cape Arago Lighthouse
    Sunny day at the coast-Cape Arago Lighthouse
  • Cherry Blossoms
    Cherry Blossoms
  • White-Crowned Sparrow
    White-Crowned Sparrow
  • New Day
    New Day
  • Happy Easter!
    Happy Easter!

WunderPhotos

Upload Photos

1,703,122 photos uploaded!

WunderBlogs® & News

Nearby

Snow Depth

Not available.

Coastal Water Temperatures

Place Temperature
No Stations Reporting

Earthquake Activity

City Distance Mag. Time & Date
No recent earthquake activity has been reported nearby.
Minimum magnitude displayed is 2.5.

Nearby Weather Stations

Station Location Temp. Dew Point Humidity Wind Precip. Elev Updated Type
SUZUKA, %u9234%u9E7F%u5E02 52.3 °F 50 °F 92% NNW  at  1.0 mph 0.04 in / hr 33 ft 5:54 PM JST Rapid Fire
Nagoya 56.1 °F 51 °F 82% East  at  0.0 mph 0.00 in / hr 52 ft 5:54 PM JST Rapid Fire

Show More Stations Show Fewer Stations

What do you think?

We're not finished. Please let us know what you like, what you don't like, and what you are still missing.